createdAt,value
2017-10-14T00:01:01.644Z,63.30
2017-10-14T00:03:27.881Z,63.37
2017-10-14T00:05:54.269Z,63.56
2017-10-14T00:08:20.575Z,63.56
2017-10-14T00:10:46.870Z,63.48
2017-10-14T00:13:13.191Z,63.70
2017-10-14T00:15:39.463Z,64.14
2017-10-14T00:18:05.796Z,63.79
2017-10-14T00:20:32.136Z,63.96
2017-10-14T00:22:58.431Z,63.91
2017-10-14T00:25:24.761Z,64.48
2017-10-14T00:27:51.094Z,64.43
2017-10-14T00:30:17.468Z,64.56
2017-10-14T00:32:43.780Z,64.55
2017-10-14T00:35:10.102Z,64.67
2017-10-14T00:37:36.428Z,64.83
2017-10-14T00:40:02.769Z,64.99
2017-10-14T00:42:29.110Z,65.02
2017-10-14T00:44:55.435Z,65.22
2017-10-14T00:47:21.738Z,65.42
2017-10-14T00:49:47.997Z,65.45
2017-10-14T00:52:14.317Z,65.49
2017-10-14T00:54:40.653Z,65.51
2017-10-14T00:57:06.885Z,65.61
2017-10-14T00:59:33.309Z,65.54
2017-10-14T01:01:59.677Z,65.35
2017-10-14T01:04:26.000Z,65.28
2017-10-14T01:06:52.300Z,65.24
2017-10-14T01:09:18.641Z,65.19
2017-10-14T01:11:44.980Z,65.14
2017-10-14T01:14:11.329Z,64.98
2017-10-14T01:16:37.650Z,64.87
2017-10-14T01:19:03.992Z,65.19
2017-10-14T01:21:30.328Z,65.20
2017-10-14T01:23:56.623Z,65.08
2017-10-14T01:26:22.992Z,65.18
2017-10-14T01:28:49.302Z,65.16
2017-10-14T01:31:16.141Z,65.25
2017-10-14T01:33:42.475Z,65.34
2017-10-14T01:36:08.832Z,65.54
2017-10-14T01:38:35.136Z,65.44
2017-10-14T01:41:01.495Z,65.51
2017-10-14T01:43:27.825Z,65.52
2017-10-14T01:45:54.058Z,65.80
2017-10-14T01:48:20.372Z,66.07
2017-10-14T01:50:46.699Z,66.24
2017-10-14T01:53:13.018Z,66.40
2017-10-14T01:55:39.252Z,66.72
2017-10-14T01:58:05.582Z,66.70
2017-10-14T02:00:31.910Z,66.90
2017-10-14T02:02:58.159Z,66.83
2017-10-14T02:05:24.486Z,66.87
2017-10-14T02:07:50.714Z,67.12
2017-10-14T02:10:17.040Z,67.07
2017-10-14T02:12:43.310Z,67.18
2017-10-14T02:15:09.609Z,67.27
2017-10-14T02:17:35.921Z,67.28
2017-10-14T02:20:02.194Z,67.26
2017-10-14T02:22:28.518Z,67.52
2017-10-14T02:24:54.820Z,67.57
2017-10-14T02:27:21.057Z,67.68
2017-10-14T02:29:47.376Z,67.91
2017-10-14T02:32:13.660Z,68.38
2017-10-14T02:34:39.971Z,68.58
2017-10-14T02:37:09.583Z,68.49
2017-10-14T02:39:35.907Z,68.59
2017-10-14T02:42:02.228Z,68.71
2017-10-14T02:44:28.558Z,68.88
2017-10-14T02:46:54.882Z,68.85
2017-10-14T02:49:21.226Z,69.05
2017-10-14T02:51:47.564Z,69.22
2017-10-14T02:54:13.886Z,69.54
2017-10-14T02:56:40.212Z,69.95
2017-10-14T02:59:06.431Z,70.22
2017-10-14T03:01:32.684Z,70.17
2017-10-14T03:03:59.038Z,70.31
2017-10-14T03:06:25.362Z,70.21
2017-10-14T03:08:51.677Z,70.19
2017-10-14T03:11:18.032Z,70.33
2017-10-14T03:13:44.347Z,70.50
2017-10-14T03:16:10.673Z,70.58
2017-10-14T03:18:37.021Z,70.50
2017-10-14T03:21:03.358Z,70.62
2017-10-14T03:23:29.686Z,70.91
2017-10-14T03:25:56.007Z,71.06
2017-10-14T03:28:22.343Z,71.53
2017-10-14T03:30:48.661Z,71.91
2017-10-14T03:33:15.020Z,72.66
2017-10-14T03:35:41.345Z,72.65
2017-10-14T03:38:07.686Z,72.64
2017-10-14T03:40:33.991Z,72.46
2017-10-14T03:43:00.327Z,72.21
2017-10-14T03:45:26.551Z,72.19
2017-10-14T03:47:52.888Z,72.31
2017-10-14T03:50:19.237Z,72.50
2017-10-14T03:52:45.555Z,72.89
2017-10-14T03:55:11.890Z,74.50
2017-10-14T03:57:38.238Z,74.49
2017-10-14T04:00:04.567Z,75.07
2017-10-14T04:02:30.884Z,75.01
2017-10-14T04:04:57.216Z,75.96
2017-10-14T04:07:23.532Z,76.86
2017-10-14T04:09:49.791Z,78.34
2017-10-14T04:12:16.121Z,79.58
2017-10-14T04:14:42.475Z,80.16
2017-10-14T04:17:08.832Z,80.63
2017-10-14T04:19:35.103Z,80.73
2017-10-14T04:22:01.421Z,80.10
2017-10-14T04:24:27.666Z,79.98
2017-10-14T04:26:54.012Z,80.11
2017-10-14T04:29:20.347Z,80.38
2017-10-14T04:31:46.674Z,80.19
2017-10-14T04:34:13.008Z,80.41
2017-10-14T04:36:39.344Z,80.62
2017-10-14T04:39:05.686Z,80.33
2017-10-14T04:41:32.022Z,80.14
2017-10-14T04:43:58.469Z,80.02
2017-10-14T04:46:24.791Z,80.10
2017-10-14T04:48:51.105Z,79.94
2017-10-14T04:51:17.456Z,79.73
2017-10-14T04:53:43.768Z,79.08
2017-10-14T04:56:10.065Z,77.94
2017-10-14T04:58:36.335Z,77.18
2017-10-14T05:01:02.685Z,77.63
2017-10-14T05:03:29.003Z,78.03
2017-10-14T05:05:55.332Z,78.07
2017-10-14T05:08:21.725Z,77.91
2017-10-14T05:10:47.960Z,77.91
2017-10-14T05:13:14.230Z,77.61
2017-10-14T05:15:40.535Z,77.43
2017-10-14T05:18:06.885Z,76.40
2017-10-14T05:20:33.216Z,71.00
2017-10-14T05:22:59.557Z,66.55
2017-10-14T05:25:25.901Z,62.54
2017-10-14T05:27:53.199Z,58.48
2017-10-14T05:30:20.435Z,55.97
2017-10-14T05:32:46.776Z,53.31
2017-10-14T05:35:13.062Z,51.77
2017-10-14T05:37:39.365Z,50.91
2017-10-14T05:40:07.436Z,50.33
2017-10-14T05:42:33.762Z,49.45
2017-10-14T05:45:00.062Z,48.90
2017-10-14T05:47:26.359Z,47.21
2017-10-14T05:49:52.579Z,47.69
2017-10-14T05:52:18.907Z,47.89
2017-10-14T05:54:45.214Z,48.75
2017-10-14T05:57:11.636Z,49.48
2017-10-14T05:59:37.903Z,50.17
2017-10-14T06:02:16.822Z,49.93
2017-10-14T06:04:43.189Z,51.87
2017-10-14T06:09:47.760Z,49.56
2017-10-14T06:12:14.187Z,49.32
2017-10-14T06:14:48.274Z,49.24
2017-10-14T06:17:14.638Z,48.28
2017-10-14T06:19:49.760Z,47.83
2017-10-14T06:22:17.635Z,48.02
2017-10-14T06:24:43.943Z,46.82
2017-10-14T06:27:10.242Z,47.49
2017-10-14T06:29:37.121Z,47.50
2017-10-14T06:32:03.422Z,47.69
2017-10-14T06:34:29.994Z,47.75
2017-10-14T06:36:56.329Z,47.65
2017-10-14T06:39:22.592Z,46.47
2017-10-14T06:41:48.788Z,46.58
2017-10-14T06:44:15.009Z,47.88
2017-10-14T06:46:41.242Z,46.94
2017-10-14T06:49:07.442Z,46.87
2017-10-14T06:51:33.727Z,47.35
2017-10-14T06:53:59.973Z,47.42
2017-10-14T06:56:26.191Z,45.98
2017-10-14T06:58:52.450Z,47.18
2017-10-14T07:01:18.659Z,47.64
2017-10-14T07:03:44.923Z,45.61
2017-10-14T07:06:11.142Z,46.35
2017-10-14T07:08:37.399Z,46.89
2017-10-14T07:11:03.601Z,47.70
2017-10-14T07:13:29.812Z,46.85
2017-10-14T07:15:56.107Z,45.71
2017-10-14T07:18:22.295Z,46.33
2017-10-14T07:20:48.530Z,45.12
2017-10-14T07:23:14.746Z,45.64
2017-10-14T07:25:40.940Z,45.40
2017-10-14T07:28:07.201Z,45.95
2017-10-14T07:30:33.413Z,44.74
2017-10-14T07:32:59.622Z,44.00
2017-10-14T07:35:25.859Z,43.70
2017-10-14T07:37:52.053Z,44.70
2017-10-14T07:40:18.264Z,44.20
2017-10-14T07:42:45.545Z,43.55
2017-10-14T07:45:11.792Z,42.88
2017-10-14T07:47:38.002Z,42.41
2017-10-14T07:50:04.214Z,42.97
2017-10-14T07:52:30.428Z,41.98
2017-10-14T07:54:56.703Z,41.10
2017-10-14T07:57:22.903Z,41.83
2017-10-14T07:59:49.117Z,39.26
2017-10-14T08:02:15.346Z,38.14
2017-10-14T08:04:41.559Z,38.66
2017-10-14T08:07:07.806Z,38.74
2017-10-14T08:09:34.559Z,39.53
2017-10-14T08:12:00.771Z,38.92
2017-10-14T08:14:27.061Z,39.14
2017-10-14T08:16:53.283Z,40.19
2017-10-14T08:19:19.525Z,40.94
2017-10-14T08:21:45.755Z,41.23
2017-10-14T08:24:11.984Z,40.59
2017-10-14T08:26:38.235Z,39.64
2017-10-14T08:29:04.469Z,38.65
2017-10-14T08:31:30.714Z,39.08
2017-10-14T08:33:56.937Z,38.15
2017-10-14T08:36:23.164Z,37.67
2017-10-14T08:38:49.431Z,38.03
2017-10-14T08:41:15.645Z,38.99
2017-10-14T08:43:41.915Z,38.98
2017-10-14T08:46:08.129Z,38.86
2017-10-14T08:48:34.425Z,38.74
2017-10-14T08:51:00.638Z,38.25
2017-10-14T08:53:26.850Z,39.52
2017-10-14T08:55:53.102Z,40.94
2017-10-14T08:58:19.332Z,40.60
2017-10-14T09:00:45.537Z,40.45
2017-10-14T09:03:11.766Z,40.17
2017-10-14T09:05:37.994Z,39.26
2017-10-14T09:08:04.238Z,40.74
2017-10-14T09:10:30.464Z,38.81
2017-10-14T09:12:56.668Z,39.71
2017-10-14T09:15:22.920Z,39.60
2017-10-14T09:17:49.114Z,38.79
2017-10-14T09:20:15.346Z,40.70
2017-10-14T09:22:41.584Z,40.92
2017-10-14T09:25:07.807Z,39.80
2017-10-14T09:27:34.024Z,39.48
2017-10-14T09:30:01.228Z,39.90
2017-10-14T09:32:27.473Z,39.71
2017-10-14T09:34:53.725Z,40.45
2017-10-14T09:37:19.929Z,41.85
2017-10-14T09:39:46.201Z,39.40
2017-10-14T09:42:12.405Z,38.15
2017-10-14T09:44:38.653Z,38.57
2017-10-14T09:47:04.863Z,37.49
2017-10-14T09:49:31.108Z,38.40
2017-10-14T09:51:57.350Z,39.69
2017-10-14T09:54:23.595Z,38.99
2017-10-14T09:56:49.846Z,41.29
2017-10-14T09:59:16.064Z,39.71
2017-10-14T10:01:42.269Z,38.97
2017-10-14T10:04:08.485Z,38.64
2017-10-14T10:06:34.690Z,38.80
2017-10-14T10:09:00.941Z,40.57
2017-10-14T10:11:27.157Z,40.83
2017-10-14T10:13:53.418Z,40.66
2017-10-14T10:16:19.616Z,39.46
2017-10-14T10:18:45.853Z,38.00
2017-10-14T10:21:12.076Z,39.12
2017-10-14T10:23:38.286Z,38.86
2017-10-14T10:26:04.483Z,40.12
2017-10-14T10:28:30.744Z,39.00
2017-10-14T10:30:56.970Z,39.25
2017-10-14T10:33:23.200Z,38.09
2017-10-14T10:35:49.449Z,39.93
2017-10-14T10:38:15.675Z,38.19
2017-10-14T10:40:41.923Z,37.48
2017-10-14T10:43:08.139Z,38.60
2017-10-14T10:45:34.403Z,38.73
2017-10-14T10:48:00.651Z,39.28
2017-10-14T10:50:26.869Z,39.11
2017-10-14T10:52:53.092Z,39.06
2017-10-14T10:55:19.324Z,39.68
2017-10-14T10:57:45.593Z,38.25
2017-10-14T11:00:11.799Z,39.30
2017-10-14T11:02:38.050Z,40.03
2017-10-14T11:05:04.269Z,39.16
2017-10-14T11:07:30.578Z,39.05
2017-10-14T11:09:56.831Z,38.89
2017-10-14T11:12:23.106Z,38.62
2017-10-14T11:14:49.303Z,38.38
2017-10-14T11:17:15.517Z,38.73
2017-10-14T11:19:41.721Z,38.95
2017-10-14T11:22:08.034Z,39.75
2017-10-14T11:24:34.290Z,39.59
2017-10-14T11:27:00.505Z,36.84
2017-10-14T11:29:26.741Z,37.73
2017-10-14T11:31:53.041Z,36.84
2017-10-14T11:34:19.333Z,36.23
2017-10-14T11:36:45.543Z,34.99
2017-10-14T11:39:11.929Z,35.89
2017-10-14T11:41:38.126Z,34.87
2017-10-14T11:44:06.372Z,34.62
2017-10-14T11:46:32.691Z,33.57
2017-10-14T11:48:58.969Z,32.75
2017-10-14T11:51:25.321Z,34.07
2017-10-14T11:53:51.674Z,32.52
2017-10-14T11:56:18.066Z,32.91
2017-10-14T11:58:44.629Z,33.65
2017-10-14T12:01:11.132Z,33.03
2017-10-14T12:03:37.648Z,33.38
2017-10-14T12:06:04.109Z,32.56
2017-10-14T12:08:31.120Z,31.56
2017-10-14T12:10:57.903Z,31.65
2017-10-14T12:13:24.482Z,32.11
2017-10-14T12:15:51.124Z,32.36
2017-10-14T12:18:17.628Z,32.82
2017-10-14T12:20:44.426Z,31.38
2017-10-14T12:23:10.939Z,30.78
2017-10-14T12:25:37.998Z,31.40
2017-10-14T12:28:04.564Z,31.46
2017-10-14T12:30:31.033Z,31.72
2017-10-14T12:32:57.612Z,31.37
2017-10-14T12:35:24.125Z,32.01
2017-10-14T12:37:50.733Z,33.83
2017-10-14T12:40:17.335Z,33.25
2017-10-14T12:42:43.970Z,32.02
2017-10-14T12:45:10.546Z,31.97
2017-10-14T12:47:37.190Z,31.78
2017-10-14T12:50:03.776Z,31.71
2017-10-14T12:52:30.375Z,30.33
2017-10-14T12:54:57.050Z,30.34
2017-10-14T12:57:23.632Z,31.45
2017-10-14T12:59:50.123Z,31.21
2017-10-14T13:02:16.645Z,31.54
2017-10-14T13:04:43.217Z,31.36
2017-10-14T13:07:09.727Z,32.25
2017-10-14T13:09:36.406Z,32.21
2017-10-14T13:12:03.035Z,32.42
2017-10-14T13:14:29.752Z,30.93
2017-10-14T13:16:56.374Z,32.02
2017-10-14T13:19:23.048Z,32.42
2017-10-14T13:21:49.580Z,33.25
2017-10-14T13:24:16.291Z,33.37
2017-10-14T13:26:42.808Z,31.98
2017-10-14T13:29:09.174Z,32.42
2017-10-14T13:31:43.828Z,32.87
2017-10-14T13:36:48.785Z,31.76
2017-10-14T13:39:15.406Z,31.43
2017-10-14T13:41:41.987Z,32.20
2017-10-14T13:44:08.707Z,31.56
2017-10-14T13:46:35.184Z,32.11
2017-10-14T13:49:03.168Z,32.32
2017-10-14T13:51:29.650Z,32.11
2017-10-14T13:53:56.195Z,32.52
2017-10-14T13:56:24.435Z,33.13
2017-10-14T13:58:51.036Z,32.65
2017-10-14T14:04:57.340Z,33.75
2017-10-14T14:07:28.803Z,32.80
2017-10-14T14:09:55.264Z,33.35
2017-10-14T14:12:23.442Z,34.83
2017-10-14T14:14:50.389Z,34.51
2017-10-14T14:17:17.350Z,34.50
2017-10-14T14:19:44.017Z,34.86
2017-10-14T14:22:10.558Z,34.81
2017-10-14T14:24:37.111Z,34.01
2017-10-14T14:27:03.658Z,34.70
2017-10-14T14:29:30.211Z,35.05
2017-10-14T14:31:57.043Z,34.86
2017-10-14T14:34:23.787Z,36.23
2017-10-14T14:36:50.502Z,35.75
2017-10-14T14:39:16.900Z,35.51
2017-10-14T14:41:44.079Z,35.27
2017-10-14T14:44:10.726Z,35.28
2017-10-14T14:46:42.115Z,36.28
2017-10-14T14:51:39.916Z,35.38
2017-10-14T14:54:06.556Z,35.63
2017-10-14T14:56:33.195Z,35.88
2017-10-14T14:58:59.645Z,36.40
2017-10-14T15:01:26.201Z,37.20
2017-10-14T15:03:52.756Z,38.46
2017-10-14T15:06:19.409Z,38.94
2017-10-14T15:08:45.923Z,39.40
2017-10-14T15:11:12.636Z,39.84
2017-10-14T15:13:39.194Z,40.81
2017-10-14T15:16:05.976Z,41.15
2017-10-14T15:18:32.696Z,42.20
2017-10-14T15:20:59.229Z,43.30
2017-10-14T15:23:26.007Z,43.76
2017-10-14T15:25:52.932Z,44.33
2017-10-14T15:28:19.381Z,45.19
2017-10-14T15:30:45.910Z,45.26
2017-10-14T15:33:12.414Z,45.68
2017-10-14T15:35:39.032Z,47.27
2017-10-14T15:38:05.643Z,47.87
2017-10-14T15:40:32.282Z,47.88
2017-10-14T15:42:59.967Z,48.44
2017-10-14T15:45:26.472Z,48.53
2017-10-14T15:47:53.269Z,49.04
2017-10-14T15:50:19.951Z,49.44
2017-10-14T15:52:46.508Z,50.01
2017-10-14T15:55:12.836Z,49.86
2017-10-14T15:57:39.225Z,50.30
2017-10-14T16:00:05.521Z,50.12
2017-10-14T16:02:32.062Z,50.40
2017-10-14T16:04:58.527Z,50.18
2017-10-14T16:07:24.804Z,52.40
2017-10-14T16:09:51.105Z,53.14
2017-10-14T16:12:17.494Z,53.81
2017-10-14T16:14:43.874Z,54.44
2017-10-14T16:17:10.253Z,54.53
2017-10-14T16:19:36.618Z,54.80
2017-10-14T16:22:03.084Z,55.03
2017-10-14T16:24:29.320Z,55.40
2017-10-14T16:26:55.591Z,55.55
2017-10-14T16:29:21.904Z,56.00
2017-10-14T16:31:48.150Z,56.68
2017-10-14T16:34:14.411Z,56.97
2017-10-14T16:36:40.691Z,57.54
2017-10-14T16:39:07.080Z,57.42
2017-10-14T16:41:33.378Z,57.71
2017-10-14T16:43:59.776Z,57.76
2017-10-14T16:46:26.292Z,57.71
2017-10-14T16:48:52.910Z,58.96
2017-10-14T16:51:19.485Z,58.40
2017-10-14T16:53:45.922Z,58.99
2017-10-14T16:56:12.354Z,58.54
2017-10-14T16:58:38.958Z,59.08
2017-10-14T17:01:05.329Z,59.26
2017-10-14T17:03:32.039Z,59.78
2017-10-14T17:05:58.620Z,59.84
2017-10-14T17:08:25.204Z,60.42
2017-10-14T17:10:51.914Z,61.85
2017-10-14T17:13:18.630Z,61.35
2017-10-14T17:15:45.355Z,61.96
2017-10-14T17:18:12.062Z,62.27
2017-10-14T17:20:38.881Z,63.09
2017-10-14T17:23:05.575Z,63.03
2017-10-14T17:25:32.167Z,63.59
2017-10-14T17:27:58.882Z,64.34
2017-10-14T17:30:25.580Z,65.85
2017-10-14T17:32:52.201Z,66.60
2017-10-14T17:35:18.705Z,66.68
2017-10-14T17:37:45.490Z,66.84
2017-10-14T17:40:12.175Z,67.10
2017-10-14T17:42:38.839Z,67.18
2017-10-14T17:45:05.477Z,67.71
2017-10-14T17:47:32.157Z,67.12
2017-10-14T17:49:59.002Z,66.38
2017-10-14T17:52:25.653Z,66.63
2017-10-14T17:54:52.456Z,67.95
2017-10-14T17:57:19.196Z,68.69
2017-10-14T17:59:45.785Z,68.66
2017-10-14T18:02:12.473Z,68.86
2017-10-14T18:04:39.099Z,69.38
2017-10-14T18:07:06.092Z,68.95
2017-10-14T18:09:32.734Z,69.17
2017-10-14T18:11:59.445Z,69.66
2017-10-14T18:14:26.165Z,69.32
2017-10-14T18:16:52.918Z,68.61
2017-10-14T18:19:19.935Z,68.25
2017-10-14T18:21:46.807Z,70.16
2017-10-14T18:24:14.548Z,70.46
2017-10-14T18:26:41.160Z,71.37
2017-10-14T18:29:07.824Z,71.78
2017-10-14T18:31:34.699Z,71.86
2017-10-14T18:34:01.504Z,72.42
2017-10-14T18:36:28.232Z,72.58
2017-10-14T18:38:55.091Z,72.87
2017-10-14T18:41:21.964Z,73.26
2017-10-14T18:43:48.572Z,73.63
2017-10-14T18:46:15.726Z,73.81
2017-10-14T18:48:43.095Z,73.87
2017-10-14T18:51:09.758Z,73.41
2017-10-14T18:53:36.352Z,73.17
2017-10-14T18:56:03.132Z,72.87
2017-10-14T18:58:29.949Z,74.02
2017-10-14T19:00:56.610Z,75.33
2017-10-14T19:03:23.347Z,76.17
2017-10-14T19:05:50.027Z,76.72
2017-10-14T19:08:16.779Z,76.60
2017-10-14T19:10:43.611Z,76.75
2017-10-14T19:13:10.390Z,76.82
2017-10-14T19:15:36.964Z,76.68
2017-10-14T19:18:03.661Z,77.37
2017-10-14T19:20:30.403Z,77.95
2017-10-14T19:22:57.113Z,78.32
2017-10-14T19:25:23.850Z,78.64
2017-10-14T19:27:50.670Z,78.91
2017-10-14T19:30:17.551Z,78.58
2017-10-14T19:32:44.237Z,78.70
2017-10-14T19:35:11.088Z,78.12
2017-10-14T19:37:37.960Z,78.14
2017-10-14T19:40:04.777Z,78.45
2017-10-14T19:42:31.541Z,79.04
2017-10-14T19:44:58.389Z,80.82
2017-10-14T19:47:24.959Z,81.18
2017-10-14T19:49:51.624Z,81.40
2017-10-14T19:52:18.100Z,81.27
2017-10-14T19:54:44.551Z,81.18
2017-10-14T19:57:11.128Z,81.19
2017-10-14T19:59:37.550Z,80.88
2017-10-14T20:02:04.157Z,80.71
2017-10-14T20:04:30.696Z,80.12
2017-10-14T20:06:57.293Z,79.50
2017-10-14T20:09:23.800Z,80.21
2017-10-14T20:11:50.347Z,81.13
2017-10-14T20:14:16.984Z,81.73
2017-10-14T20:16:43.742Z,82.14
2017-10-14T20:19:10.308Z,81.60
2017-10-14T20:21:36.962Z,82.06
2017-10-14T20:24:03.617Z,82.02
2017-10-14T20:26:30.437Z,82.05
2017-10-14T20:28:57.070Z,82.03
2017-10-14T20:31:23.685Z,81.97
2017-10-14T20:33:50.225Z,81.71
2017-10-14T20:36:16.836Z,82.71
2017-10-14T20:38:43.421Z,82.50
2017-10-14T20:41:09.894Z,82.42
2017-10-14T20:43:36.347Z,82.61
2017-10-14T20:46:03.057Z,81.72
2017-10-14T20:48:29.495Z,81.89
2017-10-14T20:50:55.926Z,81.73
2017-10-14T20:53:22.125Z,82.30
2017-10-14T20:55:48.436Z,82.55
2017-10-14T20:58:14.653Z,83.17
2017-10-14T21:00:40.962Z,83.57
2017-10-14T21:03:07.373Z,82.96
2017-10-14T21:05:33.687Z,82.43
2017-10-14T21:07:59.999Z,82.33
2017-10-14T21:10:26.313Z,82.43
2017-10-14T21:12:52.533Z,82.52
2017-10-14T21:15:18.857Z,82.82
2017-10-14T21:17:45.080Z,84.04
2017-10-14T21:20:11.333Z,83.86
2017-10-14T21:22:37.552Z,83.49
2017-10-14T21:25:03.779Z,84.19
2017-10-14T21:27:30.124Z,84.23
2017-10-14T21:29:56.344Z,84.67
2017-10-14T21:32:22.609Z,85.11
2017-10-14T21:34:48.923Z,84.55
2017-10-14T21:37:15.163Z,84.85
2017-10-14T21:39:41.507Z,84.43
2017-10-14T21:42:07.839Z,84.70
2017-10-14T21:44:34.048Z,84.86
2017-10-14T21:47:00.273Z,85.18
2017-10-14T21:49:26.485Z,85.12
2017-10-14T21:51:52.709Z,84.90
2017-10-14T21:54:18.994Z,84.08
2017-10-14T21:56:45.290Z,84.57
2017-10-14T21:59:11.519Z,85.02
2017-10-14T22:01:37.760Z,85.02
2017-10-14T22:04:04.082Z,85.12
2017-10-14T22:06:30.298Z,85.40
2017-10-14T22:08:56.523Z,85.68
2017-10-14T22:11:22.759Z,85.33
2017-10-14T22:13:49.007Z,85.31
2017-10-14T22:16:15.324Z,85.54
2017-10-14T22:18:41.568Z,86.25
2017-10-14T22:21:07.784Z,85.62
2017-10-14T22:23:34.013Z,85.05
2017-10-14T22:26:00.246Z,85.53
2017-10-14T22:28:26.579Z,86.19
2017-10-14T22:30:52.820Z,85.97
2017-10-14T22:33:19.050Z,86.43
2017-10-14T22:35:45.282Z,86.23
2017-10-14T22:38:11.509Z,86.38
2017-10-14T22:40:37.826Z,86.11
2017-10-14T22:43:04.063Z,86.19
2017-10-14T22:45:30.292Z,86.43
2017-10-14T22:47:56.519Z,86.58
2017-10-14T22:50:22.750Z,86.22
2017-10-14T22:52:49.087Z,86.76
2017-10-14T22:55:15.321Z,86.41
2017-10-14T22:57:41.541Z,86.23
2017-10-14T23:00:07.780Z,86.20
2017-10-14T23:02:34.034Z,86.43
2017-10-14T23:05:00.333Z,86.20
2017-10-14T23:07:26.572Z,86.17
2017-10-14T23:09:52.800Z,86.85
2017-10-14T23:12:19.020Z,86.83
2017-10-14T23:14:45.262Z,87.10
2017-10-14T23:17:11.583Z,87.11
2017-10-14T23:19:37.815Z,86.38
2017-10-14T23:22:04.043Z,86.30
2017-10-14T23:24:30.269Z,86.79
2017-10-14T23:26:56.507Z,86.82
2017-10-14T23:29:22.827Z,86.40
2017-10-14T23:31:49.068Z,85.97
2017-10-14T23:34:15.283Z,85.91
2017-10-14T23:36:41.520Z,86.35
2017-10-14T23:39:07.760Z,86.44
2017-10-14T23:41:34.108Z,86.65
2017-10-14T23:44:00.427Z,86.57
2017-10-14T23:46:26.650Z,86.88
2017-10-14T23:48:52.887Z,86.90
2017-10-14T23:51:19.120Z,87.12
2017-10-14T23:53:45.469Z,87.01
2017-10-14T23:56:11.782Z,86.87
2017-10-14T23:58:38.001Z,86.84
